createdAt,value
2019-01-12T00:01:27.330Z,19.70
2019-01-12T00:03:56.801Z,15.27
2019-01-12T00:06:24.532Z,16.93
2019-01-12T00:08:55.518Z,19.80
2019-01-12T00:11:23.229Z,18.67
2019-01-12T00:13:50.837Z,15.70
2019-01-12T00:16:21.650Z,18.47
2019-01-12T00:18:49.516Z,15.43
2019-01-12T00:21:17.542Z,17.43
2019-01-12T00:23:45.215Z,17.00
2019-01-12T00:26:12.749Z,18.43
2019-01-12T00:28:42.358Z,16.07
2019-01-12T00:31:10.155Z,19.90
2019-01-12T00:33:38.031Z,15.47
2019-01-12T00:36:05.625Z,16.37
2019-01-12T00:38:33.213Z,15.50
2019-01-12T00:41:05.492Z,19.00
2019-01-12T00:43:33.313Z,20.70
2019-01-12T00:46:00.998Z,20.23
2019-01-12T00:48:28.673Z,18.73
2019-01-12T00:50:56.356Z,17.03
2019-01-12T00:53:24.405Z,17.53
2019-01-12T00:55:55.305Z,16.37
2019-01-12T00:58:24.569Z,14.70
2019-01-12T01:00:52.245Z,15.00
2019-01-12T01:03:19.982Z,14.53
2019-01-12T01:05:49.747Z,13.93
2019-01-12T01:08:17.667Z,15.70
2019-01-12T01:10:45.209Z,14.43
2019-01-12T01:13:12.842Z,17.17
2019-01-12T01:15:40.529Z,16.00
2019-01-12T01:18:08.123Z,18.67
2019-01-12T01:20:38.572Z,17.10
2019-01-12T01:23:06.282Z,17.00
2019-01-12T01:25:33.835Z,18.10
2019-01-12T01:28:01.483Z,16.27
2019-01-12T01:30:30.465Z,16.87
2019-01-12T01:32:58.124Z,19.43
2019-01-12T01:35:25.744Z,16.50
2019-01-12T01:37:53.687Z,18.80
2019-01-12T01:40:22.374Z,16.87
2019-01-12T01:42:50.811Z,20.13
2019-01-12T01:45:18.550Z,19.73
2019-01-12T01:47:46.128Z,15.50
2019-01-12T01:50:15.209Z,18.40
2019-01-12T01:52:44.060Z,17.80
2019-01-12T01:55:12.305Z,18.27
2019-01-12T01:57:41.272Z,17.50
2019-01-12T02:00:14.873Z,16.37
2019-01-12T02:02:42.536Z,20.20
2019-01-12T02:05:10.215Z,18.48
2019-01-12T02:07:39.219Z,14.60
2019-01-12T02:10:15.736Z,17.97
2019-01-12T02:12:43.776Z,17.70
2019-01-12T02:15:11.687Z,14.30
2019-01-12T02:17:39.761Z,15.03
2019-01-12T02:20:07.883Z,16.90
2019-01-12T02:22:35.428Z,17.17
2019-01-12T02:25:03.735Z,16.63
2019-01-12T02:27:31.796Z,16.67
2019-01-12T02:29:59.486Z,17.37
2019-01-12T02:32:27.163Z,17.33
2019-01-12T02:34:54.886Z,17.20
2019-01-12T02:37:22.784Z,19.27
2019-01-12T02:39:50.424Z,17.07
2019-01-12T02:42:18.437Z,20.67
2019-01-12T02:44:46.086Z,17.87
2019-01-12T02:47:13.659Z,18.97
2019-01-12T02:49:41.288Z,23.03
2019-01-12T02:52:08.944Z,18.27
2019-01-12T02:54:36.508Z,21.97
2019-01-12T02:57:04.483Z,16.17
2019-01-12T02:59:32.033Z,21.17
2019-01-12T03:01:59.654Z,16.60
2019-01-12T03:04:27.412Z,17.13
2019-01-12T03:06:55.002Z,19.80
2019-01-12T03:09:22.610Z,19.90
2019-01-12T03:11:50.304Z,18.33
2019-01-12T03:14:19.954Z,19.30
2019-01-12T03:16:47.552Z,16.17
2019-01-12T03:19:15.478Z,19.50
2019-01-12T03:21:44.621Z,17.67
2019-01-12T03:24:13.716Z,18.20
2019-01-12T03:26:41.728Z,22.50
2019-01-12T03:29:09.291Z,18.57
2019-01-12T03:31:36.870Z,20.63
2019-01-12T03:34:04.808Z,19.83
2019-01-12T03:36:32.588Z,16.70
2019-01-12T03:39:00.428Z,14.90
2019-01-12T03:41:28.186Z,16.10
2019-01-12T03:43:55.761Z,15.40
2019-01-12T03:46:23.338Z,16.37
2019-01-12T03:48:51.103Z,17.43
2019-01-12T03:51:19.829Z,14.77
2019-01-12T03:53:47.509Z,16.80
2019-01-12T03:56:15.141Z,16.17
2019-01-12T03:58:46.970Z,22.03
2019-01-12T04:01:15.680Z,19.27
2019-01-12T04:03:43.711Z,17.73
2019-01-12T04:06:11.634Z,18.63
2019-01-12T04:08:39.220Z,16.77
2019-01-12T04:11:06.870Z,15.97
2019-01-12T04:13:34.505Z,17.40
2019-01-12T04:16:02.126Z,16.80
2019-01-12T04:18:30.161Z,15.80
2019-01-12T04:20:57.794Z,19.43
2019-01-12T04:23:25.342Z,15.33
2019-01-12T04:25:55.829Z,16.37
2019-01-12T04:28:23.913Z,17.60
2019-01-12T04:30:51.501Z,15.50
2019-01-12T04:33:19.227Z,13.37
2019-01-12T04:35:46.894Z,14.13
2019-01-12T04:38:14.526Z,12.83
2019-01-12T04:40:42.310Z,13.97
2019-01-12T04:43:09.919Z,12.60
2019-01-12T04:45:37.519Z,12.67
2019-01-12T04:48:05.292Z,12.63
2019-01-12T04:50:32.884Z,13.87
2019-01-12T04:53:00.741Z,19.93
2019-01-12T04:55:30.914Z,14.67
2019-01-12T04:57:58.559Z,15.23
2019-01-12T05:00:26.190Z,14.27
2019-01-12T05:02:55.450Z,12.27
2019-01-12T05:05:25.041Z,14.30
2019-01-12T05:07:52.654Z,11.83
2019-01-12T05:10:20.331Z,13.57
2019-01-12T05:12:49.900Z,9.60
2019-01-12T05:15:17.480Z,11.50
2019-01-12T05:17:45.332Z,9.97
2019-01-12T05:20:18.433Z,10.33
2019-01-12T05:22:46.367Z,9.90
2019-01-12T05:25:16.980Z,9.60
2019-01-12T05:27:44.612Z,9.63
2019-01-12T05:30:17.394Z,7.87
2019-01-12T05:32:45.306Z,9.50
2019-01-12T05:35:13.000Z,9.40
2019-01-12T05:37:40.633Z,11.93
2019-01-12T05:40:08.687Z,9.33
2019-01-12T05:42:36.484Z,8.17
2019-01-12T05:45:05.247Z,10.13
2019-01-12T05:47:33.005Z,9.50
2019-01-12T05:50:00.574Z,9.17
2019-01-12T05:52:28.278Z,12.77
2019-01-12T05:54:56.213Z,11.17
2019-01-12T05:57:27.669Z,8.87
2019-01-12T05:59:56.449Z,10.63
2019-01-12T06:02:24.233Z,10.03
2019-01-12T06:04:52.936Z,8.73
2019-01-12T06:07:20.594Z,12.77
2019-01-12T06:09:48.846Z,8.80
2019-01-12T06:12:16.527Z,7.20
2019-01-12T06:14:44.129Z,12.27
2019-01-12T06:17:14.103Z,9.83
2019-01-12T06:19:41.588Z,10.07
2019-01-12T06:22:09.239Z,10.70
2019-01-12T06:24:37.212Z,10.10
2019-01-12T06:27:04.798Z,9.13
2019-01-12T06:29:32.409Z,9.83
2019-01-12T06:32:00.245Z,8.13
2019-01-12T06:34:28.226Z,10.30
2019-01-12T06:36:55.890Z,8.93
2019-01-12T06:39:23.592Z,13.77
2019-01-12T06:41:51.182Z,11.70
2019-01-12T06:44:18.812Z,10.67
2019-01-12T06:46:46.657Z,12.43
2019-01-12T06:49:14.273Z,12.60
2019-01-12T06:51:41.912Z,14.33
2019-01-12T06:54:09.572Z,14.00
2019-01-12T06:56:37.170Z,12.20
2019-01-12T06:59:04.766Z,10.47
2019-01-12T07:01:32.841Z,12.00
2019-01-12T07:04:00.469Z,8.70
2019-01-12T07:06:29.910Z,10.47
2019-01-12T07:08:57.567Z,7.40
2019-01-12T07:11:26.983Z,9.17
2019-01-12T07:13:54.877Z,10.43
2019-01-12T07:16:22.937Z,11.37
2019-01-12T07:18:50.652Z,7.87
2019-01-12T07:21:18.360Z,9.13
2019-01-12T07:23:47.717Z,8.43
2019-01-12T07:26:17.654Z,8.13
2019-01-12T07:28:46.191Z,10.40
2019-01-12T07:31:16.124Z,7.80
2019-01-12T07:33:43.712Z,6.57
2019-01-12T07:36:11.446Z,6.47
2019-01-12T07:38:39.124Z,8.70
2019-01-12T07:41:06.752Z,7.63
2019-01-12T07:43:34.412Z,6.67
2019-01-12T07:46:02.477Z,6.40
2019-01-12T07:48:30.093Z,8.87
2019-01-12T07:50:57.695Z,6.97
2019-01-12T07:53:25.738Z,7.47
2019-01-12T07:55:53.742Z,6.30
2019-01-12T07:58:21.370Z,7.13
2019-01-12T08:00:49.112Z,8.33
2019-01-12T08:03:18.585Z,7.07
2019-01-12T08:05:46.208Z,7.60
2019-01-12T08:08:14.183Z,8.03
2019-01-12T08:10:41.794Z,8.53
2019-01-12T08:13:09.408Z,7.10
2019-01-12T08:15:37.117Z,8.80
2019-01-12T08:18:04.791Z,7.67
2019-01-12T08:20:34.443Z,8.47
2019-01-12T08:23:02.487Z,6.23
2019-01-12T08:25:30.112Z,8.13
2019-01-12T08:27:58.965Z,8.53
2019-01-12T08:30:29.144Z,8.70
2019-01-12T08:32:58.018Z,8.60
2019-01-12T08:35:25.676Z,6.63
2019-01-12T08:37:53.781Z,7.00
2019-01-12T08:40:21.354Z,7.23
2019-01-12T08:42:49.270Z,7.60
2019-01-12T08:45:17.077Z,6.17
2019-01-12T08:47:44.896Z,6.10
2019-01-12T08:50:17.686Z,6.53
2019-01-12T08:52:45.780Z,11.23
2019-01-12T08:55:13.481Z,6.30
2019-01-12T08:57:41.206Z,6.23
2019-01-12T09:00:18.391Z,6.87
2019-01-12T09:02:47.065Z,6.13
2019-01-12T09:05:15.019Z,9.40
2019-01-12T09:07:42.918Z,5.73
2019-01-12T09:10:19.774Z,5.70
2019-01-12T09:12:47.682Z,4.60
2019-01-12T09:15:15.586Z,4.10
2019-01-12T09:17:44.691Z,4.40
2019-01-12T09:20:13.025Z,4.23
2019-01-12T09:22:40.668Z,6.70
2019-01-12T09:25:09.162Z,5.03
2019-01-12T09:27:40.618Z,8.97
2019-01-12T09:30:11.955Z,6.03
2019-01-12T09:32:41.223Z,6.10
2019-01-12T09:35:09.744Z,4.10
2019-01-12T09:37:37.693Z,4.20
2019-01-12T09:40:08.156Z,5.27
2019-01-12T09:42:35.780Z,5.87
2019-01-12T09:45:04.184Z,4.77
2019-01-12T09:47:31.950Z,5.10
2019-01-12T09:50:04.260Z,8.60
2019-01-12T09:52:31.965Z,5.23
2019-01-12T09:54:59.693Z,4.97
2019-01-12T09:57:27.379Z,5.77
2019-01-12T09:59:58.752Z,5.90
2019-01-12T10:02:26.413Z,4.73
2019-01-12T10:04:53.977Z,6.33
2019-01-12T10:07:22.181Z,5.47
2019-01-12T10:09:49.909Z,6.80
2019-01-12T10:12:19.007Z,5.67
2019-01-12T10:14:51.088Z,5.37
2019-01-12T10:17:18.732Z,6.23
2019-01-12T10:19:50.112Z,7.50
2019-01-12T10:22:19.602Z,5.70
2019-01-12T10:24:47.569Z,5.80
2019-01-12T10:27:15.229Z,4.93
2019-01-12T10:29:42.876Z,4.53
2019-01-12T10:32:13.941Z,4.37
2019-01-12T10:34:42.626Z,4.47
2019-01-12T10:37:10.285Z,6.33
2019-01-12T10:39:38.031Z,8.70
2019-01-12T10:42:05.903Z,4.43
2019-01-12T10:44:36.608Z,3.67
2019-01-12T10:47:04.618Z,5.23
2019-01-12T10:49:41.404Z,4.53
2019-01-12T10:52:09.422Z,5.73
2019-01-12T10:54:39.499Z,5.73
2019-01-12T10:57:07.585Z,3.30
2019-01-12T10:59:35.290Z,6.20
2019-01-12T11:02:04.033Z,5.67
2019-01-12T11:04:32.525Z,4.00
2019-01-12T11:07:01.676Z,5.23
2019-01-12T11:09:29.851Z,5.60
2019-01-12T11:11:58.030Z,5.30
2019-01-12T11:14:26.342Z,4.77
2019-01-12T11:16:56.665Z,5.87
2019-01-12T11:19:27.525Z,6.00
2019-01-12T11:21:56.087Z,5.47
2019-01-12T11:24:28.358Z,4.90
2019-01-12T11:27:00.022Z,6.00
2019-01-12T11:29:28.041Z,4.93
2019-01-12T11:31:56.758Z,5.63
2019-01-12T11:34:24.461Z,6.00
2019-01-12T11:37:02.219Z,7.30
2019-01-12T11:39:29.951Z,8.50
2019-01-12T11:41:59.906Z,7.17
2019-01-12T11:44:27.527Z,8.27
2019-01-12T11:46:58.407Z,6.40
2019-01-12T11:49:26.005Z,7.00
2019-01-12T11:51:53.916Z,7.47
2019-01-12T11:54:22.130Z,5.60
2019-01-12T11:56:50.850Z,5.60
2019-01-12T11:59:18.420Z,5.80
2019-01-12T12:01:46.145Z,5.83
2019-01-12T12:04:17.319Z,5.87
2019-01-12T12:06:44.997Z,7.03
2019-01-12T12:09:13.143Z,6.10
2019-01-12T12:11:41.061Z,7.60
2019-01-12T12:14:12.296Z,6.47
2019-01-12T12:16:40.270Z,5.13
2019-01-12T12:19:07.902Z,6.37
2019-01-12T12:21:35.494Z,6.57
2019-01-12T12:24:03.091Z,7.27
2019-01-12T12:26:31.005Z,4.77
2019-01-12T12:28:58.721Z,5.63
2019-01-12T12:31:26.394Z,6.27
2019-01-12T12:33:54.004Z,7.60
2019-01-12T12:36:21.666Z,6.83
2019-01-12T12:38:49.450Z,8.27
2019-01-12T12:41:17.085Z,7.00
2019-01-12T12:43:44.681Z,9.10
2019-01-12T12:46:12.359Z,6.30
2019-01-12T12:48:39.913Z,6.57
2019-01-12T12:51:07.577Z,8.97
2019-01-12T12:53:37.157Z,10.63
2019-01-12T12:56:06.300Z,10.40
2019-01-12T12:58:33.966Z,10.10
2019-01-12T13:01:01.685Z,12.37
2019-01-12T13:03:31.985Z,10.50
2019-01-12T13:06:03.287Z,9.67
2019-01-12T13:08:31.438Z,9.40
2019-01-12T13:10:59.318Z,10.10
2019-01-12T13:13:27.107Z,10.53
2019-01-12T13:15:55.030Z,11.03
2019-01-12T13:18:22.630Z,9.20
2019-01-12T13:20:50.442Z,10.30
2019-01-12T13:23:18.766Z,9.77
2019-01-12T13:25:46.374Z,9.47
2019-01-12T13:28:17.197Z,11.43
2019-01-12T13:30:44.976Z,12.40
2019-01-12T13:33:12.596Z,11.90
2019-01-12T13:35:40.295Z,11.83
2019-01-12T13:38:08.191Z,10.40
2019-01-12T13:40:35.842Z,12.53
2019-01-12T13:43:03.502Z,12.60
2019-01-12T13:45:31.131Z,11.13
2019-01-12T13:47:58.850Z,12.30
2019-01-12T13:50:27.468Z,15.30
2019-01-12T13:53:00.208Z,12.77
2019-01-12T13:55:28.049Z,12.83
2019-01-12T13:57:55.688Z,12.63
2019-01-12T14:00:36.351Z,14.57
2019-01-12T14:03:05.714Z,15.20
2019-01-12T14:05:35.436Z,14.60
2019-01-12T14:08:04.094Z,16.67
2019-01-12T14:10:31.723Z,13.50
2019-01-12T14:12:59.284Z,14.90
2019-01-12T14:15:28.843Z,16.63
2019-01-12T14:17:56.576Z,15.63
2019-01-12T14:20:26.629Z,12.43
2019-01-12T14:22:57.376Z,15.73
2019-01-12T14:25:29.089Z,15.93
2019-01-12T14:27:57.094Z,16.53
2019-01-12T14:30:26.662Z,15.27
2019-01-12T14:32:58.752Z,17.47
2019-01-12T14:35:26.892Z,11.70
2019-01-12T14:37:56.230Z,10.80
2019-01-12T14:40:24.623Z,9.00
2019-01-12T14:42:52.888Z,8.43
2019-01-12T14:45:24.232Z,11.03
2019-01-12T14:47:52.065Z,12.03
2019-01-12T14:50:19.668Z,9.40
2019-01-12T14:52:47.757Z,12.17
2019-01-12T14:55:21.745Z,9.83
2019-01-12T14:57:50.078Z,9.13
2019-01-12T15:00:23.013Z,9.60
2019-01-12T15:02:50.953Z,10.03
2019-01-12T15:05:20.778Z,12.27
2019-01-12T15:07:48.461Z,12.20
2019-01-12T15:10:17.628Z,11.97
2019-01-12T15:12:52.031Z,10.47
2019-01-12T15:15:21.994Z,10.93
2019-01-12T15:17:49.608Z,12.03
2019-01-12T15:20:19.412Z,10.53
2019-01-12T15:22:47.372Z,14.20
2019-01-12T15:25:17.611Z,14.70
2019-01-12T15:27:45.721Z,17.10
2019-01-12T15:30:20.982Z,11.57
2019-01-12T15:32:48.846Z,11.50
2019-01-12T15:35:20.716Z,12.47
2019-01-12T15:37:48.321Z,15.60
2019-01-12T15:40:16.976Z,11.37
2019-01-12T15:42:44.581Z,10.77
2019-01-12T15:45:18.175Z,13.67
2019-01-12T15:47:46.103Z,12.03
2019-01-12T15:50:15.959Z,17.13
2019-01-12T15:52:44.078Z,13.17
2019-01-12T15:55:15.714Z,13.20
2019-01-12T15:57:43.757Z,13.03
2019-01-12T16:00:39.334Z,12.77
2019-01-12T16:03:10.020Z,14.47
2019-01-12T16:05:44.692Z,12.30
2019-01-12T16:08:15.421Z,11.13
2019-01-12T16:10:43.197Z,13.50
2019-01-12T16:13:11.359Z,11.33
2019-01-12T16:15:42.046Z,11.20
2019-01-12T16:18:09.766Z,10.07
2019-01-12T16:20:40.906Z,12.30
2019-01-12T16:23:13.845Z,12.83
2019-01-12T16:25:41.662Z,9.63
2019-01-12T16:28:09.558Z,7.83
2019-01-12T16:30:42.983Z,7.40
2019-01-12T16:33:10.808Z,6.53
2019-01-12T16:35:38.767Z,6.23
2019-01-12T16:38:09.734Z,7.17
2019-01-12T16:40:37.610Z,6.80
2019-01-12T16:43:06.945Z,6.73
2019-01-12T16:45:35.112Z,5.50
2019-01-12T16:48:08.253Z,5.73
2019-01-12T16:50:36.275Z,5.37
2019-01-12T16:53:07.285Z,5.77
2019-01-12T16:55:35.469Z,5.43
2019-01-12T16:58:03.339Z,4.83
2019-01-12T17:00:44.579Z,5.80
2019-01-12T17:03:17.353Z,6.30
2019-01-12T17:05:45.585Z,5.37
2019-01-12T17:08:16.187Z,5.57
2019-01-12T17:10:43.850Z,6.13
2019-01-12T17:13:11.605Z,7.37
2019-01-12T17:15:41.578Z,9.17
2019-01-12T17:18:22.366Z,6.70
2019-01-12T17:20:52.469Z,7.93
2019-01-12T17:23:27.320Z,6.47
2019-01-12T17:26:04.696Z,6.07
2019-01-12T17:28:37.376Z,6.17
2019-01-12T17:31:05.294Z,5.93
2019-01-12T17:33:32.946Z,5.77
2019-01-12T17:36:00.611Z,6.77
2019-01-12T17:38:31.122Z,7.37
2019-01-12T17:40:58.794Z,6.97
2019-01-12T17:43:29.905Z,7.53
2019-01-12T17:45:57.516Z,6.80
2019-01-12T17:48:25.121Z,7.57
2019-01-12T17:50:52.722Z,8.67
2019-01-12T17:53:20.310Z,9.27
2019-01-12T17:55:48.271Z,9.57
2019-01-12T17:58:15.948Z,6.90
2019-01-12T18:00:48.003Z,5.77
2019-01-12T18:03:16.043Z,7.53
2019-01-12T18:05:47.833Z,10.00
2019-01-12T18:08:15.569Z,20.40
2019-01-12T18:10:43.266Z,11.80
2019-01-12T18:13:12.082Z,9.07
2019-01-12T18:15:41.033Z,6.63
2019-01-12T18:18:11.903Z,17.80
2019-01-12T18:20:39.597Z,9.27
2019-01-12T18:23:07.158Z,9.13
2019-01-12T18:25:35.091Z,9.83
2019-01-12T18:28:07.180Z,8.17
2019-01-12T18:30:36.492Z,6.67
2019-01-12T18:33:10.292Z,5.73
2019-01-12T18:35:37.922Z,5.17
2019-01-12T18:38:08.534Z,6.85
2019-01-12T18:40:39.272Z,6.60
2019-01-12T18:43:09.979Z,4.60
2019-01-12T18:45:41.718Z,9.20
2019-01-12T18:48:09.420Z,6.07
2019-01-12T18:50:38.491Z,10.40
2019-01-12T18:53:10.457Z,6.70
2019-01-12T18:55:38.368Z,6.50
2019-01-12T18:58:18.429Z,6.37
2019-01-12T19:00:51.350Z,3.60
2019-01-12T19:03:19.519Z,4.93
2019-01-12T19:05:52.614Z,4.60
2019-01-12T19:08:23.791Z,4.07
2019-01-12T19:10:51.724Z,4.50
2019-01-12T19:13:19.604Z,4.70
2019-01-12T19:15:49.535Z,4.73
2019-01-12T19:18:17.368Z,5.20
2019-01-12T19:20:45.984Z,6.13
2019-01-12T19:23:13.633Z,5.27
2019-01-12T19:25:53.239Z,5.10
2019-01-12T19:28:21.037Z,5.37
2019-01-12T19:30:48.866Z,5.27
2019-01-12T19:33:16.434Z,4.43
2019-01-12T19:35:46.807Z,4.40
2019-01-12T19:38:14.768Z,4.87
2019-01-12T19:40:44.056Z,6.33
2019-01-12T19:43:11.669Z,4.10
2019-01-12T19:45:39.450Z,4.40
2019-01-12T19:48:07.083Z,3.97
2019-01-12T19:50:36.353Z,3.67
2019-01-12T19:53:04.689Z,3.87
2019-01-12T19:55:33.570Z,2.77
2019-01-12T19:58:01.285Z,2.63
2019-01-12T20:00:32.844Z,3.20
2019-01-12T20:03:00.347Z,2.13
2019-01-12T20:05:30.205Z,2.60
2019-01-12T20:07:57.827Z,2.17
2019-01-12T20:10:29.836Z,2.73
2019-01-12T20:12:57.843Z,2.13
2019-01-12T20:15:26.422Z,3.37
2019-01-12T20:17:54.097Z,3.17
2019-01-12T20:20:21.684Z,2.60
2019-01-12T20:22:50.313Z,2.03
2019-01-12T20:25:20.909Z,3.67
2019-01-12T20:27:48.756Z,2.40
2019-01-12T20:30:40.454Z,1.93
2019-01-12T20:33:46.905Z,3.60
2019-01-12T20:37:10.672Z,3.33
2019-01-12T20:40:20.194Z,2.10
2019-01-12T20:43:27.450Z,3.17
2019-01-12T20:46:28.633Z,3.57
2019-01-12T20:49:21.462Z,2.60
2019-01-12T20:52:43.054Z,3.60
2019-01-12T20:55:59.704Z,3.97
2019-01-12T20:59:02.109Z,3.63
2019-01-12T21:02:08.843Z,6.33
2019-01-12T21:05:04.082Z,4.07
2019-01-12T21:08:02.190Z,3.67
2019-01-12T21:11:10.186Z,4.40
2019-01-12T21:14:12.177Z,5.33
2019-01-12T21:16:49.703Z,4.83
2019-01-12T21:19:21.614Z,4.70
2019-01-12T21:21:59.176Z,6.53
2019-01-12T21:24:27.159Z,5.53
2019-01-12T21:26:55.210Z,6.37
2019-01-12T21:29:35.098Z,5.57
2019-01-12T21:32:06.690Z,7.13
2019-01-12T21:35:11.080Z,5.77
2019-01-12T21:37:38.762Z,7.77
2019-01-12T21:40:09.681Z,9.10
2019-01-12T21:42:38.721Z,6.60
2019-01-12T21:45:08.726Z,6.50
2019-01-12T21:47:36.419Z,6.93
2019-01-12T21:50:05.590Z,8.80
2019-01-12T21:52:33.350Z,7.93
2019-01-12T21:55:01.005Z,6.53
2019-01-12T21:57:28.865Z,6.27
2019-01-12T21:59:56.735Z,7.80
2019-01-12T22:02:24.345Z,6.93
2019-01-12T22:04:52.137Z,5.97
2019-01-12T22:07:19.948Z,4.57
2019-01-12T22:09:47.563Z,5.70
2019-01-12T22:12:15.481Z,4.10
2019-01-12T22:14:43.183Z,4.23
2019-01-12T22:17:10.815Z,4.07
2019-01-12T22:19:38.482Z,4.40
2019-01-12T22:22:06.120Z,4.57
2019-01-12T22:24:33.705Z,3.40
2019-01-12T22:27:01.563Z,3.90
2019-01-12T22:29:32.610Z,3.93
2019-01-12T22:32:03.069Z,2.60
2019-01-12T22:34:31.235Z,4.37
2019-01-12T22:36:59.761Z,4.00
2019-01-12T22:39:27.417Z,5.73
2019-01-12T22:41:55.205Z,3.63
2019-01-12T22:44:22.865Z,4.17
2019-01-12T22:46:52.325Z,2.83
2019-01-12T22:49:19.941Z,3.53
2019-01-12T22:51:48.831Z,3.20
2019-01-12T22:54:16.577Z,4.00
2019-01-12T22:56:49.246Z,5.53
2019-01-12T22:59:16.855Z,4.10
2019-01-12T23:01:50.636Z,4.47
2019-01-12T23:04:20.521Z,4.73
2019-01-12T23:06:48.317Z,3.17
2019-01-12T23:09:16.089Z,3.63
2019-01-12T23:11:44.460Z,6.50
2019-01-12T23:14:12.453Z,5.10
2019-01-12T23:16:40.049Z,5.03
2019-01-12T23:19:09.958Z,4.87
2019-01-12T23:21:37.591Z,4.77
2019-01-12T23:24:05.738Z,4.23
2019-01-12T23:26:33.601Z,4.37
2019-01-12T23:29:01.262Z,6.23
2019-01-12T23:31:28.833Z,5.13
2019-01-12T23:33:57.832Z,10.00
2019-01-12T23:36:25.801Z,11.87
2019-01-12T23:38:53.654Z,5.30
2019-01-12T23:41:21.437Z,5.40
2019-01-12T23:43:55.522Z,9.03
2019-01-12T23:46:23.391Z,9.50
2019-01-12T23:48:52.196Z,6.40
2019-01-12T23:51:20.036Z,8.30
2019-01-12T23:53:47.822Z,7.07
2019-01-12T23:56:18.275Z,6.87
2019-01-12T23:58:45.935Z,9.83
